createdAt,value
2019-06-15T00:00:04.730Z,0
2019-06-15T00:01:05.147Z,0
2019-06-15T00:02:05.568Z,0
2019-06-15T00:03:06.589Z,0
2019-06-15T00:04:06.529Z,0
2019-06-15T00:05:06.942Z,0
2019-06-15T00:06:08.276Z,0
2019-06-15T00:07:09.404Z,0
2019-06-15T00:08:10.473Z,0
2019-06-15T00:09:08.898Z,0
2019-06-15T00:10:09.020Z,0
2019-06-15T00:11:09.432Z,0
2019-06-15T00:12:09.843Z,0
2019-06-15T00:13:10.238Z,0
2019-06-15T00:14:10.951Z,0
2019-06-15T00:15:11.651Z,0
2019-06-15T00:16:12.647Z,0
2019-06-15T00:17:13.341Z,0
2019-06-15T00:18:14.000Z,0
2019-06-15T00:19:14.986Z,0
2019-06-15T00:20:16.325Z,0
2019-06-15T00:21:17.051Z,0
2019-06-15T00:22:17.493Z,0
2019-06-15T00:23:18.055Z,0
2019-06-15T00:24:18.619Z,0
2019-06-15T00:25:19.014Z,0
2019-06-15T00:26:20.005Z,0
2019-06-15T00:27:20.150Z,0
2019-06-15T00:28:20.862Z,0
2019-06-15T00:29:21.260Z,0
2019-06-15T00:30:21.688Z,0
2019-06-15T00:31:22.398Z,0
2019-06-15T00:32:22.822Z,0
2019-06-15T00:33:23.287Z,0
2019-06-15T00:34:24.247Z,0
2019-06-15T00:35:24.971Z,0
2019-06-15T00:36:25.659Z,0
2019-06-15T00:37:25.867Z,0
2019-06-15T00:38:26.570Z,0
2019-06-15T00:39:26.970Z,0
2019-06-15T00:40:28.015Z,0
2019-06-15T00:41:27.705Z,0
2019-06-15T00:42:27.823Z,0
2019-06-15T00:43:28.237Z,0
2019-06-15T00:44:28.465Z,0
2019-06-15T00:45:28.591Z,0
2019-06-15T00:46:29.303Z,0
2019-06-15T00:47:29.721Z,0
2019-06-15T00:48:30.587Z,0
2019-06-15T00:49:31.361Z,0
2019-06-15T00:50:31.485Z,0
2019-06-15T00:51:32.186Z,0
2019-06-15T00:52:32.588Z,0
2019-06-15T00:53:33.350Z,0
2019-06-15T00:54:33.600Z,0
2019-06-15T00:55:34.012Z,0
2019-06-15T00:56:34.183Z,0
2019-06-15T00:57:34.874Z,0
2019-06-15T00:58:35.565Z,0
2019-06-15T00:59:35.701Z,0
2019-06-15T01:00:36.438Z,0
2019-06-15T01:01:37.186Z,0
2019-06-15T01:02:37.886Z,0
2019-06-15T01:03:38.012Z,0
2019-06-15T01:04:38.993Z,0
2019-06-15T01:05:39.713Z,0
2019-06-15T01:06:40.143Z,0
2019-06-15T01:07:40.556Z,0
2019-06-15T01:08:40.964Z,0
2019-06-15T01:09:41.658Z,0
2019-06-15T01:10:42.374Z,0
2019-06-15T01:11:43.158Z,0
2019-06-15T01:12:43.590Z,0
2019-06-15T01:13:44.024Z,0
2019-06-15T01:14:45.019Z,0
2019-06-15T01:15:45.437Z,0
2019-06-15T01:16:46.137Z,0
2019-06-15T01:17:46.542Z,0
2019-06-15T01:18:47.585Z,0
2019-06-15T01:19:47.708Z,0
2019-06-15T01:20:48.421Z,0
2019-06-15T01:21:49.117Z,0
2019-06-15T01:22:49.570Z,0
2019-06-15T01:23:50.299Z,0
2019-06-15T01:25:04.835Z,0
2019-06-15T01:25:51.633Z,0
2019-06-15T01:26:52.614Z,0
2019-06-15T01:27:53.334Z,0
2019-06-15T01:28:54.348Z,0
2019-06-15T01:29:54.477Z,0
2019-06-15T01:30:54.598Z,0
2019-06-15T01:31:55.022Z,0
2019-06-15T01:32:55.166Z,0
2019-06-15T01:33:55.584Z,0
2019-06-15T01:34:55.526Z,0
2019-06-15T01:35:56.241Z,0
2019-06-15T01:36:56.664Z,0
2019-06-15T01:37:57.078Z,0
2019-06-15T01:38:58.107Z,0
2019-06-15T01:39:57.805Z,0
2019-06-15T01:40:58.820Z,0
2019-06-15T01:41:59.528Z,0
2019-06-15T01:42:59.942Z,0
2019-06-15T01:44:00.950Z,0
2019-06-15T01:45:01.201Z,0
2019-06-15T01:46:01.630Z,0
2019-06-15T01:47:02.377Z,0
2019-06-15T01:48:02.804Z,0
2019-06-15T01:49:03.301Z,0
2019-06-15T01:50:03.703Z,0
2019-06-15T01:51:03.823Z,0
2019-06-15T01:52:04.250Z,0
2019-06-15T01:53:04.373Z,0
2019-06-15T01:54:04.801Z,0
2019-06-15T01:55:17.398Z,0
2019-06-15T01:56:06.659Z,0
2019-06-15T01:57:07.368Z,0
2019-06-15T01:58:08.101Z,0
2019-06-15T01:59:08.614Z,0
2019-06-15T02:00:09.039Z,0
2019-06-15T02:01:09.764Z,0
2019-06-15T02:02:09.895Z,0
2019-06-15T02:03:10.079Z,0
2019-06-15T02:04:10.289Z,0
2019-06-15T02:05:11.554Z,0
2019-06-15T02:06:12.236Z,0
2019-06-15T02:07:12.693Z,0
2019-06-15T02:08:13.135Z,0
2019-06-15T02:09:13.578Z,0
2019-06-15T02:10:14.587Z,0
2019-06-15T02:11:15.007Z,0
2019-06-15T02:12:16.029Z,0
2019-06-15T02:13:17.148Z,0
2019-06-15T02:14:18.157Z,0
2019-06-15T02:15:19.135Z,0
2019-06-15T02:16:19.346Z,0
2019-06-15T02:17:19.469Z,0
2019-06-15T02:18:20.167Z,0
2019-06-15T02:19:20.896Z,0
2019-06-15T02:20:21.612Z,0
2019-06-15T02:21:22.111Z,0
2019-06-15T02:22:22.581Z,0
2019-06-15T02:23:23.296Z,0
2019-06-15T02:24:23.735Z,0
2019-06-15T02:25:35.121Z,0
2019-06-15T02:26:24.177Z,0
2019-06-15T02:27:24.593Z,0
2019-06-15T02:28:25.307Z,0
2019-06-15T02:29:25.709Z,0
2019-06-15T02:30:26.417Z,0
2019-06-15T02:31:27.719Z,0
2019-06-15T02:32:28.723Z,0
2019-06-15T02:33:28.427Z,0
2019-06-15T02:34:29.184Z,0
2019-06-15T02:35:29.788Z,0
2019-06-15T02:36:29.487Z,0
2019-06-15T02:37:29.639Z,0
2019-06-15T02:38:30.619Z,0
2019-06-15T02:39:31.636Z,0
2019-06-15T02:40:32.202Z,0
2019-06-15T02:41:32.203Z,0
2019-06-15T02:42:33.202Z,0
2019-06-15T02:43:33.605Z,0
2019-06-15T02:44:34.043Z,0
2019-06-15T02:45:34.331Z,0
2019-06-15T02:46:37.176Z,0
2019-06-15T02:47:35.877Z,0
2019-06-15T02:48:36.302Z,0
2019-06-15T02:49:37.009Z,0
2019-06-15T02:50:37.417Z,0
2019-06-15T02:51:37.848Z,0
2019-06-15T02:52:38.263Z,0
2019-06-15T02:53:39.237Z,0
2019-06-15T02:54:39.658Z,0
2019-06-15T02:55:50.043Z,0
2019-06-15T02:56:40.896Z,0
2019-06-15T02:57:41.595Z,0
2019-06-15T02:58:42.301Z,0
2019-06-15T02:59:43.692Z,0
2019-06-15T03:00:43.402Z,0
2019-06-15T03:01:44.096Z,0
2019-06-15T03:02:44.532Z,0
2019-06-15T03:03:44.936Z,0
2019-06-15T03:04:45.948Z,0
2019-06-15T03:05:45.916Z,0
2019-06-15T03:06:46.361Z,0
2019-06-15T03:07:47.069Z,0
2019-06-15T03:08:47.210Z,0
2019-06-15T03:09:47.904Z,0
2019-06-15T03:10:48.304Z,0
2019-06-15T03:11:48.995Z,0
2019-06-15T03:12:49.718Z,0
2019-06-15T03:13:50.744Z,0
2019-06-15T03:14:51.165Z,0
2019-06-15T03:15:51.701Z,0
2019-06-15T03:16:52.432Z,0
2019-06-15T03:17:53.139Z,0
2019-06-15T03:18:54.189Z,0
2019-06-15T03:19:54.310Z,0
2019-06-15T03:20:55.318Z,0
2019-06-15T03:21:55.045Z,0
2019-06-15T03:22:55.213Z,0
2019-06-15T03:23:55.939Z,0
2019-06-15T03:24:56.376Z,0
2019-06-15T03:26:10.246Z,0
2019-06-15T03:26:57.954Z,0
2019-06-15T03:27:58.362Z,0
2019-06-15T03:28:58.493Z,0
2019-06-15T03:29:58.615Z,5.63
2019-06-15T03:30:59.409Z,5.63
2019-06-15T03:32:00.440Z,5.63
2019-06-15T03:33:01.722Z,5.63
2019-06-15T03:34:01.784Z,5.63
2019-06-15T03:35:02.808Z,5.63
2019-06-15T03:36:03.652Z,5.63
2019-06-15T03:37:03.431Z,5.63
2019-06-15T03:38:03.553Z,5.63
2019-06-15T03:39:04.307Z,5.63
2019-06-15T03:40:05.028Z,5.63
2019-06-15T03:41:05.449Z,5.63
2019-06-15T03:42:06.433Z,5.63
2019-06-15T03:43:06.842Z,5.63
2019-06-15T03:44:07.240Z,5.63
2019-06-15T03:45:07.669Z,5.63
2019-06-15T03:46:08.239Z,5.63
2019-06-15T03:47:08.666Z,11.25
2019-06-15T03:48:09.086Z,11.25
2019-06-15T03:49:09.507Z,11.25
2019-06-15T03:50:10.209Z,11.25
2019-06-15T03:51:10.676Z,11.25
2019-06-15T03:52:11.959Z,11.25
2019-06-15T03:53:12.676Z,11.25
2019-06-15T03:54:12.807Z,11.25
2019-06-15T03:55:13.209Z,11.25
2019-06-15T03:56:26.989Z,11.25
2019-06-15T03:57:14.717Z,11.25
2019-06-15T03:58:15.195Z,11.25
2019-06-15T03:59:15.594Z,11.25
2019-06-15T04:00:16.033Z,11.25
2019-06-15T04:01:16.764Z,11.25
2019-06-15T04:02:17.215Z,11.25
2019-06-15T04:03:17.694Z,11.25
2019-06-15T04:04:17.875Z,11.25
2019-06-15T04:05:19.217Z,16.88
2019-06-15T04:06:18.207Z,16.88
2019-06-15T04:07:18.922Z,16.88
2019-06-15T04:08:19.677Z,16.88
2019-06-15T04:09:20.660Z,16.88
2019-06-15T04:10:21.086Z,16.88
2019-06-15T04:11:21.255Z,16.88
2019-06-15T04:12:21.386Z,22.5
2019-06-15T04:13:21.786Z,22.5
2019-06-15T04:14:22.783Z,22.5
2019-06-15T04:15:22.917Z,22.5
2019-06-15T04:16:23.471Z,22.5
2019-06-15T04:17:24.266Z,28.13
2019-06-15T04:18:24.673Z,28.13
2019-06-15T04:19:24.805Z,28.13
2019-06-15T04:20:25.272Z,28.13
2019-06-15T04:21:25.672Z,33.75
2019-06-15T04:22:26.386Z,33.75
2019-06-15T04:23:27.676Z,39.38
2019-06-15T04:24:27.410Z,39.38
2019-06-15T04:25:27.942Z,39.38
2019-06-15T04:26:40.857Z,39.38
2019-06-15T04:27:29.928Z,45
2019-06-15T04:28:30.333Z,39.38
2019-06-15T04:29:30.458Z,45
2019-06-15T04:30:30.870Z,45
2019-06-15T04:31:31.007Z,45
2019-06-15T04:32:31.431Z,45
2019-06-15T04:33:31.872Z,45
2019-06-15T04:34:32.273Z,50.63
2019-06-15T04:35:32.966Z,50.63
2019-06-15T04:36:33.548Z,50.63
2019-06-15T04:37:33.978Z,50.63
2019-06-15T04:38:34.116Z,50.63
2019-06-15T04:39:34.571Z,56.25
2019-06-15T04:40:35.844Z,56.25
2019-06-15T04:41:35.575Z,56.25
2019-06-15T04:42:36.258Z,56.25
2019-06-15T04:43:36.667Z,67.5
2019-06-15T04:44:36.841Z,61.88
2019-06-15T04:45:37.020Z,61.88
2019-06-15T04:46:38.273Z,61.88
2019-06-15T04:47:38.696Z,67.5
2019-06-15T04:48:39.706Z,67.5
2019-06-15T04:49:40.730Z,67.5
2019-06-15T04:50:41.158Z,67.5
2019-06-15T04:51:41.579Z,67.5
2019-06-15T04:52:42.634Z,67.5
2019-06-15T04:53:42.762Z,67.5
2019-06-15T04:54:43.225Z,67.5
2019-06-15T04:55:43.676Z,67.5
2019-06-15T04:56:56.085Z,67.5
2019-06-15T04:57:44.855Z,67.5
2019-06-15T04:58:45.579Z,67.5
2019-06-15T04:59:45.705Z,73.13
2019-06-15T05:00:46.457Z,73.13
2019-06-15T05:01:46.588Z,73.13
2019-06-15T05:02:46.731Z,73.13
2019-06-15T05:03:47.461Z,73.13
2019-06-15T05:04:47.870Z,73.13
2019-06-15T05:05:48.292Z,78.75
2019-06-15T05:06:49.122Z,78.75
2019-06-15T05:07:49.241Z,78.75
2019-06-15T05:08:49.955Z,78.75
2019-06-15T05:09:50.397Z,78.75
2019-06-15T05:10:51.393Z,84.38
2019-06-15T05:11:51.844Z,84.38
2019-06-15T05:12:52.530Z,84.38
2019-06-15T05:13:52.666Z,84.38
2019-06-15T05:14:53.108Z,90
2019-06-15T05:15:53.600Z,90
2019-06-15T05:16:53.849Z,90
2019-06-15T05:17:57.459Z,90
2019-06-15T05:18:55.163Z,90
2019-06-15T05:19:55.578Z,90
2019-06-15T05:20:56.278Z,95.63
2019-06-15T05:21:56.999Z,95.63
2019-06-15T05:22:57.708Z,95.63
2019-06-15T05:23:58.468Z,95.63
2019-06-15T05:24:58.877Z,95.63
2019-06-15T05:25:59.342Z,101.25
2019-06-15T05:27:11.718Z,101.25
2019-06-15T05:28:01.036Z,101.25
2019-06-15T05:29:00.458Z,101.25
2019-06-15T05:30:02.200Z,101.25
2019-06-15T05:31:01.640Z,101.25
2019-06-15T05:32:02.633Z,101.25
2019-06-15T05:33:02.682Z,101.25
2019-06-15T05:34:03.099Z,106.88
2019-06-15T05:35:04.080Z,106.88
2019-06-15T05:36:04.803Z,106.88
2019-06-15T05:37:04.815Z,106.88
2019-06-15T05:38:05.530Z,112.5
2019-06-15T05:39:06.044Z,112.5
2019-06-15T05:40:06.169Z,112.5
2019-06-15T05:41:06.623Z,118.13
2019-06-15T05:42:07.750Z,118.13
2019-06-15T05:43:06.877Z,118.13
2019-06-15T05:44:07.305Z,118.13
2019-06-15T05:45:08.064Z,118.13
2019-06-15T05:46:09.071Z,118.13
2019-06-15T05:47:08.896Z,123.75
2019-06-15T05:48:09.916Z,123.75
2019-06-15T05:49:10.327Z,123.75
2019-06-15T05:50:10.485Z,123.75
2019-06-15T05:51:14.945Z,123.75
2019-06-15T05:52:11.669Z,123.75
2019-06-15T05:53:12.397Z,123.75
2019-06-15T05:54:13.097Z,129.38
2019-06-15T05:55:13.573Z,129.38
2019-06-15T05:56:13.697Z,123.75
2019-06-15T05:57:26.981Z,129.38
2019-06-15T05:58:15.684Z,123.75
2019-06-15T05:59:16.188Z,135
2019-06-15T06:00:16.901Z,135
2019-06-15T06:01:17.650Z,135
2019-06-15T06:02:21.023Z,135
2019-06-15T06:03:18.856Z,140.63
2019-06-15T06:04:18.983Z,140.63
2019-06-15T06:05:19.112Z,140.63
2019-06-15T06:06:20.090Z,140.63
2019-06-15T06:07:20.931Z,146.25
2019-06-15T06:08:21.942Z,146.25
2019-06-15T06:09:22.366Z,146.25
2019-06-15T06:10:23.092Z,151.88
2019-06-15T06:11:23.227Z,151.88
2019-06-15T06:12:23.638Z,151.88
2019-06-15T06:13:24.085Z,151.88
2019-06-15T06:14:24.814Z,151.88
2019-06-15T06:15:26.867Z,151.88
2019-06-15T06:16:25.434Z,151.88
2019-06-15T06:17:26.688Z,151.88
2019-06-15T06:18:26.815Z,157.5
2019-06-15T06:19:27.530Z,157.5
2019-06-15T06:20:27.949Z,157.5
2019-06-15T06:21:28.378Z,157.5
2019-06-15T06:22:28.515Z,163.13
2019-06-15T06:23:28.942Z,163.13
2019-06-15T06:24:29.347Z,163.13
2019-06-15T06:25:30.068Z,163.13
2019-06-15T06:26:30.772Z,168.75
2019-06-15T06:27:42.034Z,168.75
2019-06-15T06:28:31.470Z,174.38
2019-06-15T06:29:31.596Z,168.75
2019-06-15T06:30:35.770Z,174.38
2019-06-15T06:31:32.750Z,174.38
2019-06-15T06:32:33.196Z,174.38
2019-06-15T06:33:33.916Z,174.38
2019-06-15T06:34:34.047Z,174.38
2019-06-15T06:35:34.209Z,174.38
2019-06-15T06:36:34.635Z,174.38
2019-06-15T06:37:35.482Z,180
2019-06-15T06:38:36.492Z,180
2019-06-15T06:39:35.912Z,180
2019-06-15T06:40:36.658Z,180
2019-06-15T06:41:36.794Z,185.63
2019-06-15T06:42:37.225Z,185.63
2019-06-15T06:43:37.938Z,191.25
2019-06-15T06:44:38.669Z,191.25
2019-06-15T06:45:39.380Z,191.25
2019-06-15T06:46:39.803Z,185.63
2019-06-15T06:47:40.331Z,180
2019-06-15T06:48:41.046Z,185.63
2019-06-15T06:49:41.800Z,168.75
2019-06-15T06:50:46.446Z,191.25
2019-06-15T06:51:43.184Z,191.25
2019-06-15T06:52:43.891Z,196.88
2019-06-15T06:53:44.406Z,196.88
2019-06-15T06:54:45.503Z,202.5
2019-06-15T06:55:45.933Z,196.88
2019-06-15T06:56:46.359Z,196.88
2019-06-15T06:58:07.155Z,202.5
2019-06-15T06:58:47.572Z,202.5
2019-06-15T06:59:47.977Z,202.5
2019-06-15T07:00:48.424Z,208.13
2019-06-15T07:01:48.880Z,208.13
2019-06-15T07:02:49.013Z,213.75
2019-06-15T07:03:49.448Z,213.75
2019-06-15T07:04:50.148Z,213.75
2019-06-15T07:05:50.879Z,213.75
2019-06-15T07:06:51.654Z,213.75
2019-06-15T07:07:52.810Z,219.38
2019-06-15T07:08:53.625Z,219.38
2019-06-15T07:09:54.053Z,225
2019-06-15T07:10:54.487Z,225
2019-06-15T07:11:55.665Z,230.63
2019-06-15T07:12:56.663Z,230.63
2019-06-15T07:13:57.969Z,230.63
2019-06-15T07:14:57.976Z,230.63
2019-06-15T07:15:58.700Z,230.63
2019-06-15T07:16:59.872Z,236.25
2019-06-15T07:17:59.440Z,236.25
2019-06-15T07:19:00.896Z,241.88
2019-06-15T07:20:00.458Z,247.5
2019-06-15T07:21:01.102Z,247.5
2019-06-15T07:22:01.860Z,253.13
2019-06-15T07:23:01.993Z,253.13
2019-06-15T07:24:03.075Z,258.75
2019-06-15T07:25:03.788Z,264.38
2019-06-15T07:26:04.561Z,264.38
2019-06-15T07:27:05.047Z,270
2019-06-15T07:28:19.420Z,275.63
2019-06-15T07:29:06.546Z,416.25
2019-06-15T07:30:10.152Z,708.75
2019-06-15T07:31:07.714Z,1175.63
2019-06-15T07:32:08.146Z,1395
2019-06-15T07:33:08.379Z,1198.13
2019-06-15T07:34:09.168Z,894.38
2019-06-15T07:35:09.599Z,590.63
2019-06-15T07:36:10.407Z,376.88
2019-06-15T07:37:12.327Z,405
2019-06-15T07:38:11.930Z,466.88
2019-06-15T07:39:12.401Z,708.75
2019-06-15T07:40:13.845Z,877.5
2019-06-15T07:41:13.894Z,939.38
2019-06-15T07:42:14.820Z,1125
2019-06-15T07:43:14.828Z,804.38
2019-06-15T07:44:14.961Z,545.63
2019-06-15T07:45:15.095Z,714.38
2019-06-15T07:46:15.635Z,900
2019-06-15T07:47:16.536Z,1271.25
2019-06-15T07:48:16.887Z,405
2019-06-15T07:49:17.380Z,506.25
2019-06-15T07:50:17.846Z,725.63
2019-06-15T07:51:18.341Z,675
2019-06-15T07:52:19.052Z,877.5
2019-06-15T07:53:20.102Z,866.25
2019-06-15T07:54:20.119Z,759.38
2019-06-15T07:55:20.636Z,753.75
2019-06-15T07:56:21.707Z,922.5
2019-06-15T07:57:21.857Z,1164.38
2019-06-15T07:58:35.844Z,1552.5
2019-06-15T07:59:23.285Z,1608.75
2019-06-15T08:00:23.702Z,1625.63
2019-06-15T08:01:24.146Z,1530
2019-06-15T08:02:24.875Z,1473.75
2019-06-15T08:03:26.255Z,1456.88
2019-06-15T08:04:25.973Z,1530
2019-06-15T08:05:26.781Z,1473.75
2019-06-15T08:06:27.794Z,1423.13
2019-06-15T08:07:28.532Z,1350
2019-06-15T08:08:28.481Z,1260
2019-06-15T08:09:29.202Z,1243.13
2019-06-15T08:10:29.965Z,1271.25
2019-06-15T08:11:30.433Z,1237.5
2019-06-15T08:12:31.164Z,1170
2019-06-15T08:13:31.579Z,1130.63
2019-06-15T08:14:32.288Z,1125
2019-06-15T08:15:33.074Z,1147.5
2019-06-15T08:16:33.834Z,1153.13
2019-06-15T08:17:34.534Z,1141.88
2019-06-15T08:18:35.053Z,1158.75
2019-06-15T08:19:35.494Z,1181.25
2019-06-15T08:20:36.961Z,1153.13
2019-06-15T08:21:36.997Z,1136.25
2019-06-15T08:22:37.430Z,1006.88
2019-06-15T08:23:38.506Z,995.63
2019-06-15T08:24:38.694Z,1209.38
2019-06-15T08:25:39.479Z,1698.75
2019-06-15T08:26:40.538Z,1507.5
2019-06-15T08:27:40.959Z,1423.13
2019-06-15T08:28:55.977Z,1338.75
2019-06-15T08:29:41.689Z,1276.88
2019-06-15T08:30:42.180Z,1333.13
2019-06-15T08:31:43.002Z,1423.13
2019-06-15T08:32:44.070Z,1316.25
2019-06-15T08:33:44.546Z,1344.38
2019-06-15T08:34:45.934Z,1400.63
2019-06-15T08:35:45.086Z,1485
2019-06-15T08:36:45.507Z,1507.5
2019-06-15T08:37:45.708Z,1603.13
2019-06-15T08:38:46.363Z,1597.5
2019-06-15T08:39:46.799Z,1642.5
2019-06-15T08:40:47.916Z,1490.63
2019-06-15T08:41:48.370Z,1316.25
2019-06-15T08:42:49.088Z,1338.75
2019-06-15T08:43:49.522Z,1417.5
2019-06-15T08:44:50.237Z,1535.63
2019-06-15T08:45:50.951Z,1496.25
2019-06-15T08:46:51.412Z,1451.25
2019-06-15T08:47:51.902Z,1563.75
2019-06-15T08:48:52.469Z,1490.63
2019-06-15T08:49:53.194Z,1383.75
2019-06-15T08:50:53.376Z,1231.88
2019-06-15T08:51:54.513Z,1462.5
2019-06-15T08:52:55.216Z,1608.75
2019-06-15T08:53:54.769Z,1743.75
2019-06-15T08:54:55.856Z,1462.5
2019-06-15T08:55:56.598Z,1170
2019-06-15T08:56:57.054Z,1018.13
2019-06-15T08:57:57.907Z,1096.88
2019-06-15T08:59:11.484Z,1288.13
2019-06-15T08:59:59.305Z,1006.88
2019-06-15T09:00:59.840Z,1068.75
2019-06-15T09:02:00.747Z,1012.5
2019-06-15T09:03:00.757Z,905.63
2019-06-15T09:04:00.381Z,787.5
2019-06-15T09:05:00.917Z,815.63
2019-06-15T09:06:01.614Z,697.5
2019-06-15T09:07:02.075Z,849.38
2019-06-15T09:08:02.951Z,804.38
2019-06-15T09:09:03.476Z,708.75
2019-06-15T09:10:03.938Z,967.5
2019-06-15T09:11:04.946Z,922.5
2019-06-15T09:12:05.433Z,810
2019-06-15T09:13:05.874Z,781.88
2019-06-15T09:14:06.891Z,1113.75
2019-06-15T09:15:07.424Z,1001.25
2019-06-15T09:16:07.895Z,1091.25
2019-06-15T09:17:08.041Z,1023.75
2019-06-15T09:18:09.069Z,725.63
2019-06-15T09:19:09.046Z,697.5
2019-06-15T09:20:09.763Z,916.88
2019-06-15T09:21:10.777Z,855
2019-06-15T09:22:11.068Z,804.38
2019-06-15T09:23:11.211Z,697.5
2019-06-15T09:24:11.693Z,635.63
2019-06-15T09:25:12.430Z,680.63
2019-06-15T09:26:13.479Z,1091.25
2019-06-15T09:27:14.202Z,1012.5
2019-06-15T09:28:15.550Z,1018.13
2019-06-15T09:29:28.048Z,928.13
2019-06-15T09:30:16.831Z,1035
2019-06-15T09:31:17.690Z,1288.13
2019-06-15T09:32:17.436Z,1226.25
2019-06-15T09:33:18.341Z,1220.63
2019-06-15T09:34:33.864Z,1102.5
2019-06-15T09:35:19.595Z,945
2019-06-15T09:36:19.754Z,1006.88
2019-06-15T09:37:20.196Z,1029.38
2019-06-15T09:38:20.434Z,1006.88
2019-06-15T09:39:25.239Z,455.63
2019-06-15T09:40:22.998Z,450
2019-06-15T09:41:24.004Z,438.75
2019-06-15T09:42:24.770Z,630
2019-06-15T09:43:25.476Z,928.13
2019-06-15T09:44:25.958Z,961.88
2019-06-15T09:45:26.668Z,860.63
2019-06-15T09:46:26.833Z,697.5
2019-06-15T09:47:27.471Z,787.5
2019-06-15T09:48:27.924Z,410.63
2019-06-15T09:49:29.216Z,393.75
2019-06-15T09:50:29.643Z,607.5
2019-06-15T09:51:30.979Z,742.5
2019-06-15T09:52:31.408Z,916.88
2019-06-15T09:53:32.136Z,1068.75
2019-06-15T09:54:33.433Z,1153.13
2019-06-15T09:55:33.159Z,1215
2019-06-15T09:56:33.587Z,1411.88
2019-06-15T09:57:34.300Z,1215
2019-06-15T09:58:35.305Z,1215
2019-06-15T09:59:44.076Z,945
2019-06-15T10:00:37.130Z,1080
2019-06-15T10:01:37.590Z,973.13
2019-06-15T10:02:38.299Z,978.75
2019-06-15T10:03:38.536Z,815.63
2019-06-15T10:04:38.989Z,855
2019-06-15T10:05:39.125Z,939.38
2019-06-15T10:06:39.869Z,1091.25
2019-06-15T10:07:40.695Z,1175.63
2019-06-15T10:08:41.424Z,1068.75
2019-06-15T10:09:42.342Z,1288.13
2019-06-15T10:10:42.079Z,1192.5
2019-06-15T10:11:42.511Z,973.13
2019-06-15T10:12:43.528Z,956.25
2019-06-15T10:13:43.953Z,916.88
2019-06-15T10:14:44.664Z,860.63
2019-06-15T10:15:45.495Z,995.63
2019-06-15T10:16:46.564Z,528.75
2019-06-15T10:17:47.009Z,523.13
2019-06-15T10:18:50.162Z,506.25
2019-06-15T10:19:48.691Z,540
2019-06-15T10:20:49.710Z,753.75
2019-06-15T10:21:49.863Z,680.63
2019-06-15T10:22:49.998Z,990
2019-06-15T10:23:50.794Z,697.5
2019-06-15T10:24:51.244Z,843.75
2019-06-15T10:25:54.149Z,742.5
2019-06-15T10:26:53.063Z,478.13
2019-06-15T10:27:54.127Z,472.5
2019-06-15T10:28:54.552Z,506.25
2019-06-15T10:29:58.959Z,489.38
2019-06-15T10:31:00.700Z,708.75
2019-06-15T10:31:58.934Z,1175.63
2019-06-15T10:32:59.402Z,1136.25
2019-06-15T10:34:00.321Z,922.5
2019-06-15T10:35:00.063Z,894.38
2019-06-15T10:36:00.798Z,967.5
2019-06-15T10:37:00.942Z,646.88
2019-06-15T10:38:01.961Z,686.25
2019-06-15T10:39:01.711Z,826.88
2019-06-15T10:40:02.276Z,894.38
2019-06-15T10:41:03.053Z,708.75
2019-06-15T10:42:03.788Z,781.88
2019-06-15T10:43:05.028Z,720
2019-06-15T10:44:04.764Z,1001.25
2019-06-15T10:45:05.489Z,990
2019-06-15T10:46:06.211Z,810
2019-06-15T10:47:07.225Z,703.13
2019-06-15T10:48:08.333Z,742.5
2019-06-15T10:49:11.862Z,1080
2019-06-15T10:50:09.224Z,697.5
2019-06-15T10:51:09.651Z,826.88
2019-06-15T10:52:09.801Z,1125
2019-06-15T10:53:11.739Z,866.25
2019-06-15T10:54:11.833Z,1108.13
2019-06-15T10:55:13.165Z,725.63
2019-06-15T10:56:13.908Z,675
2019-06-15T10:57:14.353Z,697.5
2019-06-15T10:58:15.063Z,624.38
2019-06-15T10:59:15.952Z,500.63
2019-06-15T11:00:16.372Z,658.13
2019-06-15T11:01:16.533Z,894.38
2019-06-15T11:02:16.670Z,922.5
2019-06-15T11:03:17.099Z,1164.38
2019-06-15T11:04:18.133Z,1153.13
2019-06-15T11:05:18.172Z,1237.5
2019-06-15T11:06:19.346Z,1080
2019-06-15T11:07:19.057Z,855
2019-06-15T11:08:19.821Z,714.38
2019-06-15T11:09:20.341Z,585
2019-06-15T11:10:21.343Z,585
2019-06-15T11:11:22.265Z,736.88
2019-06-15T11:12:22.093Z,736.88
2019-06-15T11:13:22.527Z,731.25
2019-06-15T11:14:22.967Z,630
2019-06-15T11:15:23.437Z,624.38
2019-06-15T11:16:24.796Z,680.63
2019-06-15T11:17:24.234Z,1153.13
2019-06-15T11:18:24.961Z,1040.63
2019-06-15T11:19:25.966Z,601.88
2019-06-15T11:20:26.680Z,556.88
2019-06-15T11:21:27.849Z,669.38
2019-06-15T11:22:27.313Z,708.75
2019-06-15T11:23:27.450Z,680.63
2019-06-15T11:24:28.195Z,832.5
2019-06-15T11:25:28.919Z,826.88
2019-06-15T11:26:29.639Z,1153.13
2019-06-15T11:27:30.442Z,945
2019-06-15T11:28:32.491Z,573.75
2019-06-15T11:29:31.937Z,579.38
2019-06-15T11:30:31.262Z,883.13
2019-06-15T11:31:31.703Z,697.5
2019-06-15T11:32:32.384Z,703.13
2019-06-15T11:33:33.103Z,798.75
2019-06-15T11:34:34.111Z,579.38
2019-06-15T11:35:33.837Z,596.25
2019-06-15T11:36:34.863Z,855
2019-06-15T11:37:35.941Z,528.75
2019-06-15T11:38:36.433Z,568.13
2019-06-15T11:39:36.875Z,472.5
2019-06-15T11:40:38.464Z,489.38
2019-06-15T11:41:38.662Z,489.38
2019-06-15T11:42:39.100Z,500.63
2019-06-15T11:43:40.119Z,517.5
2019-06-15T11:44:40.885Z,517.5
2019-06-15T11:45:41.023Z,787.5
2019-06-15T11:46:41.496Z,669.38
2019-06-15T11:47:42.524Z,568.13
2019-06-15T11:48:42.983Z,556.88
2019-06-15T11:49:43.447Z,1035
2019-06-15T11:50:44.497Z,990
2019-06-15T11:51:44.938Z,1130.63
2019-06-15T11:52:45.486Z,703.13
2019-06-15T11:53:45.697Z,556.88
2019-06-15T11:54:45.832Z,489.38
2019-06-15T11:55:55.930Z,405
2019-06-15T11:56:46.918Z,444.38
2019-06-15T11:57:47.402Z,635.63
2019-06-15T11:58:48.113Z,596.25
2019-06-15T11:59:48.247Z,562.5
2019-06-15T12:00:48.899Z,495
2019-06-15T12:01:49.912Z,489.38
2019-06-15T12:02:50.618Z,483.75
2019-06-15T12:03:51.641Z,433.13
2019-06-15T12:05:03.539Z,461.25
2019-06-15T12:05:52.973Z,427.5
2019-06-15T12:06:53.704Z,388.13
2019-06-15T12:07:54.134Z,348.75
2019-06-15T12:08:54.876Z,320.63
2019-06-15T12:09:57.004Z,343.13
2019-06-15T12:10:56.303Z,365.63
2019-06-15T12:11:57.032Z,337.5
2019-06-15T12:12:57.473Z,315
2019-06-15T12:13:58.213Z,309.38
2019-06-15T12:14:59.261Z,331.88
2019-06-15T12:15:59.781Z,337.5
2019-06-15T12:17:00.995Z,348.75
2019-06-15T12:18:01.145Z,376.88
2019-06-15T12:19:01.595Z,371.25
2019-06-15T12:20:02.661Z,337.5
2019-06-15T12:21:03.521Z,270
2019-06-15T12:22:04.536Z,236.25
2019-06-15T12:23:04.667Z,236.25
2019-06-15T12:24:05.715Z,253.13
2019-06-15T12:25:06.157Z,264.38
2019-06-15T12:26:06.577Z,281.25
2019-06-15T12:27:07.283Z,275.63
2019-06-15T12:28:07.712Z,258.75
2019-06-15T12:29:08.753Z,236.25
2019-06-15T12:30:08.934Z,230.63
2019-06-15T12:31:09.698Z,236.25
2019-06-15T12:32:10.134Z,253.13
2019-06-15T12:33:10.268Z,247.5
2019-06-15T12:34:10.999Z,225
2019-06-15T12:35:11.842Z,219.38
2019-06-15T12:36:23.875Z,219.38
2019-06-15T12:37:13.600Z,225
2019-06-15T12:38:14.756Z,225
2019-06-15T12:39:15.255Z,213.75
2019-06-15T12:40:16.037Z,213.75
2019-06-15T12:41:15.728Z,202.5
2019-06-15T12:42:16.427Z,196.88
2019-06-15T12:43:16.931Z,185.63
2019-06-15T12:44:17.708Z,168.75
2019-06-15T12:45:18.489Z,157.5
2019-06-15T12:46:19.839Z,151.88
2019-06-15T12:47:20.437Z,151.88
2019-06-15T12:48:21.130Z,151.88
2019-06-15T12:49:21.568Z,157.5
2019-06-15T12:50:22.297Z,157.5
2019-06-15T12:51:22.367Z,151.88
2019-06-15T12:52:22.910Z,151.88
2019-06-15T12:53:23.716Z,163.13
2019-06-15T12:54:24.432Z,174.38
2019-06-15T12:55:25.512Z,180
2019-06-15T12:56:28.641Z,180
2019-06-15T12:57:25.792Z,163.13
2019-06-15T12:58:26.552Z,140.63
2019-06-15T12:59:27.654Z,140.63
2019-06-15T13:00:27.099Z,146.25
2019-06-15T13:01:30.147Z,157.5
2019-06-15T13:02:28.606Z,146.25
2019-06-15T13:03:29.614Z,146.25
2019-06-15T13:04:30.088Z,140.63
2019-06-15T13:05:31.123Z,129.38
2019-06-15T13:06:32.372Z,118.13
2019-06-15T13:07:32.140Z,106.88
2019-06-15T13:08:32.749Z,106.88
2019-06-15T13:09:33.819Z,106.88
2019-06-15T13:10:34.638Z,106.88
2019-06-15T13:11:35.338Z,106.88
2019-06-15T13:12:35.677Z,106.88
2019-06-15T13:13:37.055Z,106.88
2019-06-15T13:14:36.480Z,106.88
2019-06-15T13:15:36.951Z,112.5
2019-06-15T13:16:53.658Z,118.13
2019-06-15T13:17:37.799Z,118.13
2019-06-15T13:18:38.440Z,118.13